Time;durP1;ratioP1;P1;durP2;ratioP2;P2;SDS_P1;SDS_P2;PMS_P1;PMS_P2;Temp;Humidity;BMP_temperature;BMP_pressure;BME280_temperature;BME280_humidity;BME280_pressure;Samples;Min_cycle;Max_cycle;Signal;HPM_P1;HPM_P2
2023/08/03 00:00:33;;;;;;;3.15;2.30;;;;;;;15.31;100.00;98896.88;5022045;28;20483;-69
2023/08/03 00:02:58;;;;;;;5.40;2.75;;;;;;;15.31;100.00;98904.91;5019400;28;20484;-69
2023/08/03 00:05:24;;;;;;;4.95;2.85;;;;;;;15.34;100.00;98909.78;5015610;28;20487;-69
2023/08/03 00:07:50;;;;;;;5.63;3.00;;;;;;;15.36;100.00;98905.78;5022343;28;20038;-69
2023/08/03 00:10:17;;;;;;;6.68;3.53;;;;;;;15.40;100.00;98908.78;5014408;28;20341;-69
2023/08/03 00:12:43;;;;;;;6.93;3.75;;;;;;;15.44;100.00;98910.69;5016126;28;20026;-69
2023/08/03 00:15:09;;;;;;;6.20;3.08;;;;;;;15.47;100.00;98920.09;5021827;28;20026;-69
2023/08/03 00:17:35;;;;;;;7.07;3.55;;;;;;;15.50;100.00;98923.06;5017914;28;20025;-69
2023/08/03 00:20:03;;;;;;;5.82;3.40;;;;;;;15.52;100.00;98916.66;5021996;28;20060;-69
2023/08/03 00:22:29;;;;;;;4.30;3.03;;;;;;;15.52;100.00;98914.00;5017019;28;20029;-69
2023/08/03 00:24:54;;;;;;;4.85;3.40;;;;;;;15.54;100.00;98922.56;5022461;28;20036;-69
2023/08/03 00:27:19;;;;;;;5.88;3.70;;;;;;;15.56;100.00;98933.84;5019128;28;20037;-69
2023/08/03 00:29:44;;;;;;;7.88;3.78;;;;;;;15.57;100.00;98935.44;5021447;28;20034;-69
2023/08/03 00:32:10;;;;;;;10.00;4.35;;;;;;;15.59;100.00;98947.53;5020259;28;20380;-69
2023/08/03 00:34:35;;;;;;;8.93;4.82;;;;;;;15.63;100.00;98929.97;5020862;28;20026;-69
2023/08/03 00:37:00;;;;;;;8.50;4.57;;;;;;;15.66;100.00;98936.69;5016634;28;20053;-69
2023/08/03 00:39:27;;;;;;;10.68;4.90;;;;;;;15.67;100.00;98949.00;5017103;28;20052;-69
2023/08/03 00:41:52;;;;;;;9.63;4.95;;;;;;;15.72;100.00;98963.25;5019079;28;20029;-69
2023/08/03 00:44:18;;;;;;;10.60;4.75;;;;;;;15.77;100.00;98959.81;5017396;28;20071;-69
2023/08/03 00:46:43;;;;;;;13.30;5.15;;;;;;;15.78;100.00;98964.09;5022181;28;20029;-69
2023/08/03 00:49:09;;;;;;;12.35;5.25;;;;;;;15.80;100.00;98976.19;5019464;28;21993;-69
2023/08/03 00:51:34;;;;;;;11.40;4.63;;;;;;;15.82;100.00;98970.56;5014483;28;20021;-69
2023/08/03 00:54:00;;;;;;;14.63;5.40;;;;;;;15.86;100.00;98968.19;5021990;28;20026;-70
2023/08/03 00:56:25;;;;;;;12.73;5.32;;;;;;;15.88;100.00;98982.13;5022428;28;20033;-69
2023/08/03 00:58:50;;;;;;;11.63;5.80;;;;;;;15.88;100.00;98992.84;5022531;28;20030;-69
2023/08/03 01:01:15;;;;;;;12.68;5.25;;;;;;;15.92;100.00;98986.75;5018439;28;21005;-69
2023/08/03 01:03:41;;;;;;;13.05;6.10;;;;;;;15.93;100.00;98998.28;5024885;28;20035;-69
2023/08/03 01:06:06;;;;;;;11.05;4.80;;;;;;;15.93;100.00;99004.44;5025299;28;20033;-69
2023/08/03 01:08:31;;;;;;;8.60;4.43;;;;;;;15.98;100.00;99019.75;5026666;28;20036;-69
2023/08/03 01:10:57;;;;;;;8.63;3.53;;;;;;;15.99;100.00;99010.66;5024177;28;20029;-69
2023/08/03 01:13:22;;;;;;;9.35;3.60;;;;;;;15.99;100.00;99013.34;5021625;28;20026;-69
2023/08/03 01:15:48;;;;;;;7.78;3.10;;;;;;;15.98;100.00;99014.41;5025267;28;20029;-69
2023/08/03 01:18:14;;;;;;;7.60;3.00;;;;;;;16.00;100.00;99025.66;5023922;28;20095;-69
2023/08/03 01:20:40;;;;;;;6.00;3.42;;;;;;;15.98;100.00;99020.56;5026080;28;20029;-69
2023/08/03 01:23:06;;;;;;;6.47;3.40;;;;;;;15.99;100.00;99019.50;5025854;28;20033;-69
2023/08/03 01:25:32;;;;;;;7.85;3.42;;;;;;;16.01;100.00;99029.97;5025209;28;20025;-69
2023/08/03 01:27:57;;;;;;;5.18;3.03;;;;;;;16.00;100.00;99025.66;5024528;28;20053;-70
2023/08/03 01:30:23;;;;;;;10.77;3.20;;;;;;;16.05;100.00;99036.44;5024571;28;20056;-69
2023/08/03 01:32:49;;;;;;;9.18;3.20;;;;;;;16.05;100.00;99036.44;5025281;28;20486;-69
2023/08/03 01:35:14;;;;;;;5.53;2.70;;;;;;;16.05;100.00;99039.09;5019625;28;20030;-69
2023/08/03 01:37:39;;;;;;;7.20;2.30;;;;;;;16.07;100.00;99051.19;5023704;28;20045;-69
2023/08/03 01:40:05;;;;;;;5.80;2.67;;;;;;;16.08;100.00;99054.66;5020532;28;20032;-69
2023/08/03 01:42:31;;;;;;;4.32;2.38;;;;;;;16.10;100.00;99053.34;5027195;28;20051;-69
2023/08/03 01:44:56;;;;;;;6.00;3.25;;;;;;;16.12;100.00;99058.47;5024755;28;20029;-69
2023/08/03 01:47:21;;;;;;;5.65;3.60;;;;;;;16.11;100.00;99049.63;5022964;28;20040;-69
2023/08/03 01:49:47;;;;;;;11.98;5.35;;;;;;;16.10;100.00;99055.22;5021981;28;20044;-69
2023/08/03 01:52:12;;;;;;;9.90;6.28;;;;;;;16.10;100.00;99052.53;5023514;28;20025;-70
2023/08/03 01:54:37;;;;;;;10.30;6.75;;;;;;;16.08;100.00;99060.84;5024306;28;20017;-69
2023/08/03 01:57:03;;;;;;;16.50;8.48;;;;;;;16.10;100.00;99063.25;5024707;28;20041;-70
2023/08/03 01:59:28;;;;;;;17.70;8.77;;;;;;;16.10;100.00;99057.91;5023949;28;20524;-69
2023/08/03 02:01:53;;;;;;;17.05;10.20;;;;;;;16.09;100.00;99059.78;5024263;28;20029;-70
2023/08/03 02:04:18;;;;;;;16.77;10.73;;;;;;;16.10;100.00;99057.91;5023900;28;20754;-70
2023/08/03 02:06:47;;;;;;;18.15;11.43;;;;;;;16.08;100.00;99058.16;5025819;28;20068;-70
2023/08/03 02:09:13;;;;;;;17.67;11.55;;;;;;;16.09;100.00;99064.31;5021283;28;20068;-70
2023/08/03 02:11:38;;;;;;;17.17;10.98;;;;;;;16.04;100.00;99054.38;5022800;28;20044;-69
2023/08/03 02:14:03;;;;;;;17.38;11.35;;;;;;;16.04;100.00;99056.22;5016810;28;20541;-70
2023/08/03 02:16:28;;;;;;;14.02;10.52;;;;;;;16.02;100.00;99045.78;5026441;28;20017;-70
2023/08/03 02:18:53;;;;;;;13.25;9.20;;;;;;;16.01;100.00;99051.38;5022415;28;20037;-70
2023/08/03 02:21:19;;;;;;;12.98;8.30;;;;;;;15.99;100.00;99048.94;5024023;28;20028;-69
2023/08/03 02:23:44;;;;;;;14.75;8.20;;;;;;;15.99;100.00;99058.84;5024150;28;20017;-69
2023/08/03 02:26:09;;;;;;;10.80;6.22;;;;;;;15.98;100.00;99055.38;5023683;28;20076;-69
2023/08/03 02:28:35;;;;;;;11.30;5.95;;;;;;;16.00;100.00;99047.88;5019672;28;20025;-70
2023/08/03 02:31:00;;;;;;;8.30;5.45;;;;;;;16.01;100.00;99054.88;5023804;28;20103;-69
2023/08/03 02:33:25;;;;;;;9.43;5.40;;;;;;;16.03;100.00;99044.72;5023127;28;20456;-69
2023/08/03 02:35:51;;;;;;;11.32;5.30;;;;;;;16.04;100.00;99049.00;5023155;28;20029;-69
2023/08/03 02:38:16;;;;;;;10.13;5.05;;;;;;;15.97;100.00;99039.56;5020533;28;20106;-69
2023/08/03 02:40:42;;;;;;;14.02;5.75;;;;;;;15.90;100.00;99030.88;5021312;28;20104;-70
2023/08/03 02:43:07;;;;;;;13.90;6.20;;;;;;;15.83;100.00;99036.44;5020838;28;20030;-69
2023/08/03 02:45:32;;;;;;;11.00;5.82;;;;;;;15.84;100.00;99037.22;5027048;28;20057;-69
2023/08/03 02:47:58;;;;;;;13.20;6.13;;;;;;;15.86;100.00;99041.28;5022963;28;20151;-69
2023/08/03 02:50:23;;;;;;;21.30;6.65;;;;;;;15.88;100.00;99043.69;5022787;28;20033;-69
2023/08/03 02:52:49;;;;;;;16.98;6.45;;;;;;;15.79;100.00;99041.47;5024331;28;20766;-71
2023/08/03 02:55:14;;;;;;;18.85;7.05;;;;;;;15.64;100.00;99048.50;5021379;28;20034;-70
2023/08/03 02:57:40;;;;;;;18.30;6.90;;;;;;;15.48;100.00;99032.19;5024059;28;20029;-70
2023/08/03 03:00:05;;;;;;;26.60;8.38;;;;;;;15.39;100.00;99019.50;5022910;28;20386;-70
2023/08/03 03:02:31;;;;;;;17.42;6.90;;;;;;;15.32;100.00;99024.19;5019667;28;20033;-70
2023/08/03 03:04:56;;;;;;;19.70;7.85;;;;;;;15.31;100.00;99033.28;5019937;28;20086;-69
2023/08/03 03:07:21;;;;;;;19.60;7.82;;;;;;;15.28;100.00;99028.41;5022234;28;20619;-70
2023/08/03 03:09:46;;;;;;;20.35;8.18;;;;;;;15.25;100.00;99045.75;5019576;28;20033;-71
2023/08/03 03:12:12;;;;;;;21.30;8.93;;;;;;;15.24;100.00;99027.28;5022515;28;20029;-70
2023/08/03 03:14:37;;;;;;;18.50;8.15;;;;;;;15.22;100.00;99050.78;5014663;28;20025;-69
2023/08/03 03:17:03;;;;;;;21.88;8.20;;;;;;;15.23;100.00;99071.13;5021643;28;20033;-72
2023/08/03 03:19:28;;;;;;;28.10;8.80;;;;;;;15.22;100.00;99077.53;5022142;28;20108;-70
2023/08/03 03:21:54;;;;;;;23.58;8.50;;;;;;;15.20;100.00;99072.44;5019324;28;20108;-71
2023/08/03 03:24:19;;;;;;;21.40;8.27;;;;;;;15.19;100.00;99081.50;5022281;28;20522;-70
2023/08/03 03:26:44;;;;;;;26.55;8.77;;;;;;;15.19;100.00;99087.66;5023018;28;20032;-70
2023/08/03 03:29:10;;;;;;;18.70;7.93;;;;;;;15.19;100.00;99102.91;5021363;28;21256;-71
2023/08/03 03:31:35;;;;;;;22.50;7.93;;;;;;;15.18;100.00;99109.31;5019522;28;20032;-71
2023/08/03 03:34:00;;;;;;;23.13;8.23;;;;;;;15.17;100.00;99102.34;5019617;28;20430;-72
2023/08/03 03:36:26;;;;;;;17.77;7.10;;;;;;;15.16;100.00;99104.19;5021352;28;20036;-70
2023/08/03 03:38:51;;;;;;;18.88;6.93;;;;;;;15.16;100.00;99108.75;5021175;28;20033;-71
2023/08/03 03:41:16;;;;;;;14.48;6.03;;;;;;;15.18;100.00;99117.31;5017935;28;20018;-71
2023/08/03 03:43:41;;;;;;;13.57;5.60;;;;;;;15.19;100.00;99116.28;5022264;28;20044;-70
2023/08/03 03:46:07;;;;;;;12.98;5.53;;;;;;;15.18;100.00;99126.16;5022718;28;20539;-71
2023/08/03 03:48:33;;;;;;;13.05;5.82;;;;;;;15.21;100.00;99126.72;5020732;28;20033;-71
2023/08/03 03:50:58;;;;;;;9.45;5.10;;;;;;;15.20;100.00;99144.63;5019503;28;20025;-70
2023/08/03 03:53:23;;;;;;;10.48;6.30;;;;;;;15.19;100.00;99133.13;5019578;28;20044;-70
2023/08/03 03:55:48;;;;;;;10.85;5.30;;;;;;;15.18;100.00;99133.38;5016143;28;20024;-71
2023/08/03 03:58:14;;;;;;;12.30;6.00;;;;;;;15.14;100.00;99133.06;5018184;28;20087;-71
2023/08/03 04:00:43;;;;;;;16.75;6.20;;;;;;;15.17;100.00;99151.28;5022447;28;20057;-70
2023/08/03 04:03:08;;;;;;;13.43;6.53;;;;;;;15.16;100.00;99164.91;5018361;28;20030;-70
2023/08/03 04:05:34;;;;;;;13.00;6.30;;;;;;;15.19;100.00;99191.97;5020848;28;20492;-71
2023/08/03 04:08:00;;;;;;;14.02;7.38;;;;;;;15.22;100.00;99203.22;5017949;28;20025;-70
2023/08/03 04:10:25;;;;;;;17.75;8.27;;;;;;;15.21;100.00;99190.91;5023080;28;20022;-70
2023/08/03 04:12:51;;;;;;;16.25;8.57;;;;;;;15.19;100.00;99183.13;5022146;28;20097;-71
2023/08/03 04:15:16;;;;;;;16.38;8.65;;;;;;;15.20;100.00;99190.09;5021184;28;20051;-70
2023/08/03 04:17:45;;;;;;;13.20;7.35;;;;;;;15.18;100.00;99185.00;5021901;28;20060;-70
2023/08/03 04:20:10;;;;;;;16.17;7.47;;;;;;;15.18;100.00;99189.53;5018818;28;20063;-70
2023/08/03 04:22:35;;;;;;;19.35;6.70;;;;;;;15.13;100.00;99179.56;5017657;28;20569;-70
2023/08/03 04:25:01;;;;;;;13.35;6.40;;;;;;;15.15;100.00;99177.44;5020809;28;20537;-71
2023/08/03 04:27:26;;;;;;;12.68;5.90;;;;;;;15.15;100.00;99179.31;5020051;28;20095;-70
2023/08/03 04:29:51;;;;;;;11.73;5.50;;;;;;;15.16;100.00;99186.28;5022172;28;20436;-72
2023/08/03 04:32:17;;;;;;;13.02;4.90;;;;;;;15.15;100.00;99176.63;5020635;28;20054;-70
2023/08/03 04:34:42;;;;;;;10.10;4.72;;;;;;;15.13;100.00;99171.53;5021379;28;20018;-70
2023/08/03 04:37:07;;;;;;;12.02;4.07;;;;;;;15.14;100.00;99181.19;5014515;28;20029;-71
2023/08/03 04:39:32;;;;;;;9.82;4.40;;;;;;;15.15;100.00;99180.13;5026190;28;20017;-70
2023/08/03 04:41:58;;;;;;;12.27;4.35;;;;;;;15.15;100.00;99184.66;5025101;28;20052;-70
2023/08/03 04:44:23;;;;;;;13.70;4.07;;;;;;;15.15;100.00;99173.97;5028710;28;20029;-70
2023/08/03 04:46:48;;;;;;;11.30;3.78;;;;;;;15.16;100.00;99188.97;5022947;28;20514;-70
2023/08/03 04:49:13;;;;;;;15.05;3.90;;;;;;;15.16;100.00;99186.28;5022863;28;20029;-70
2023/08/03 04:51:39;;;;;;;15.15;3.80;;;;;;;15.14;100.00;99178.50;5022248;28;20540;-71
2023/08/03 04:54:04;;;;;;;14.02;3.28;;;;;;;15.14;100.00;99175.03;5021249;28;20028;-70
2023/08/03 04:56:29;;;;;;;11.18;3.53;;;;;;;15.14;100.00;99185.72;5022671;28;20033;-71
2023/08/03 04:58:54;;;;;;;10.63;3.15;;;;;;;15.14;100.00;99177.69;5019590;28;20724;-71
2023/08/03 05:01:20;;;;;;;12.93;3.38;;;;;;;15.16;100.00;99180.94;5019772;28;20098;-71
2023/08/03 05:03:45;;;;;;;8.00;3.20;;;;;;;15.14;100.00;99173.16;5024168;28;20537;-71
2023/08/03 05:06:10;;;;;;;15.13;3.92;;;;;;;15.15;100.00;99171.28;5022235;28;20033;-71
2023/08/03 05:08:35;;;;;;;10.05;3.20;;;;;;;15.15;100.00;99173.97;5016622;28;20029;-70
2023/08/03 05:11:01;;;;;;;7.85;2.78;;;;;;;15.14;100.00;99186.53;5021611;28;20527;-71
2023/08/03 05:13:26;;;;;;;9.57;2.70;;;;;;;15.13;100.00;99168.06;5016605;28;20026;-71
2023/08/03 05:15:52;;;;;;;9.10;2.53;;;;;;;15.14;100.00;99169.69;5011736;28;20433;-71
2023/08/03 05:18:17;;;;;;;9.00;2.40;;;;;;;15.14;100.00;99175.84;5015867;28;20058;-70
2023/08/03 05:20:42;;;;;;;11.75;2.70;;;;;;;15.14;100.00;99177.69;5013661;28;20032;-70
2023/08/03 05:23:09;;;;;;;10.27;2.60;;;;;;;15.16;100.00;99176.41;5018872;28;20030;-71
2023/08/03 05:25:34;;;;;;;7.55;2.78;;;;;;;15.15;100.00;99185.47;5015733;28;20511;-70
2023/08/03 05:28:00;;;;;;;10.82;2.60;;;;;;;15.14;100.00;99178.50;5011594;28;20029;-71
2023/08/03 05:30:26;;;;;;;9.75;2.60;;;;;;;15.21;100.00;99308.56;5019342;28;20033;-70
2023/08/03 05:32:51;;;;;;;10.27;2.70;;;;;;;15.23;100.00;99311.81;5018411;28;20548;-71
2023/08/03 05:35:16;;;;;;;6.65;2.40;;;;;;;15.23;100.00;99303.78;5025897;28;20379;-70
2023/08/03 05:37:42;;;;;;;13.05;2.50;;;;;;;15.27;100.00;99305.75;5022169;28;20045;-70
2023/08/03 05:40:07;;;;;;;14.30;2.05;;;;;;;15.31;100.00;99311.44;5023935;28;20033;-71
2023/08/03 05:42:37;;;;;;;11.30;2.33;;;;;;;15.33;100.00;99320.88;5022476;28;20060;-70
2023/08/03 05:45:32;;;;;;;13.88;2.35;;;;;;;15.29;100.00;99300.97;5026917;28;20045;-70
2023/08/03 05:47:58;;;;;;;10.38;2.30;;;;;;;15.36;100.00;99325.75;5024107;28;20026;-70
2023/08/03 05:50:24;;;;;;;9.85;2.50;;;;;;;15.38;100.00;99317.47;5025053;28;20033;-70
2023/08/03 05:52:50;;;;;;;9.88;2.28;;;;;;;15.45;100.00;99318.13;5022650;28;20033;-71
2023/08/03 05:55:16;;;;;;;12.43;2.33;;;;;;;15.49;100.00;99328.09;5025202;28;20029;-71
2023/08/03 05:57:41;;;;;;;10.57;2.35;;;;;;;15.54;100.00;99339.97;5015076;28;20025;-70
2023/08/03 06:00:18;;;;;;;9.40;2.60;;;;;;;15.62;100.00;99359.16;5023056;28;20090;-70
2023/08/03 06:02:45;;;;;;;11.07;2.40;;;;;;;15.62;100.00;99345.78;5017980;28;20075;-70
2023/08/03 06:05:41;;;;;;;14.90;2.45;;;;;;;15.69;100.00;99348.31;5024415;28;20037;-70
2023/08/03 06:08:09;;;;;;;14.82;2.78;;;;;;;15.68;100.00;99354.72;5019852;28;20510;-70
2023/08/03 06:10:35;;;;;;;12.18;2.65;;;;;;;15.67;100.00;99355.78;5023867;28;20028;-71
2023/08/03 06:13:02;;;;;;;11.57;3.13;;;;;;;15.65;100.00;99363.22;5018761;28;20390;-71
2023/08/03 06:15:27;;;;;;;9.60;2.10;;;;;;;15.66;100.00;99357.63;5022066;28;20029;-70
2023/08/03 06:18:01;;;;;;;11.10;2.30;;;;;;;15.68;100.00;99376.94;5023767;28;20025;-71
2023/08/03 06:20:26;;;;;;;10.55;2.17;;;;;;;15.69;100.00;99351.78;5019210;28;20120;-71
2023/08/03 06:22:52;;;;;;;11.95;2.50;;;;;;;15.76;100.00;99371.19;5022264;28;20104;-70
2023/08/03 06:25:17;;;;;;;11.77;2.25;;;;;;;15.77;100.00;99375.50;5020568;28;20018;-70
2023/08/03 06:27:43;;;;;;;9.40;2.38;;;;;;;15.82;100.00;99365.91;5018020;28;20034;-70
2023/08/03 06:30:12;;;;;;;6.65;1.60;;;;;;;15.83;100.00;99379.06;5017013;28;20030;-71
2023/08/03 06:32:37;;;;;;;7.35;2.20;;;;;;;15.82;100.00;99390.00;5026803;28;20634;-70
2023/08/03 06:35:04;;;;;;;10.30;2.28;;;;;;;15.79;100.00;99375.25;5022505;28;20032;-70
2023/08/03 06:37:29;;;;;;;12.48;2.00;;;;;;;15.80;100.00;99383.03;5022940;28;20091;-70
2023/08/03 06:39:54;;;;;;;11.70;2.25;;;;;;;15.79;100.00;99385.94;5019702;28;20058;-70
2023/08/03 06:42:20;;;;;;;5.82;1.67;;;;;;;15.75;100.00;99407.03;5021588;28;20080;-70
2023/08/03 06:44:45;;;;;;;9.18;2.25;;;;;;;15.62;100.00;99403.84;5016697;28;20029;-69
2023/08/03 06:47:10;;;;;;;10.15;1.80;;;;;;;15.46;100.00;99422.22;5019763;28;20033;-69
2023/08/03 06:49:36;;;;;;;7.03;1.70;;;;;;;15.38;100.00;99427.16;5018764;28;20457;-70
2023/08/03 06:52:01;;;;;;;8.18;1.85;;;;;;;15.35;100.00;99425.75;5019062;28;20034;-70
2023/08/03 06:54:27;;;;;;;8.63;1.95;;;;;;;15.24;100.00;99423.91;5022320;28;20652;-70
2023/08/03 06:56:52;;;;;;;9.52;2.13;;;;;;;15.23;100.00;99421.47;5019001;28;20052;-72
2023/08/03 06:59:21;;;;;;;7.25;1.70;;;;;;;15.22;100.00;99411.81;5017600;28;20033;-71
2023/08/03 07:01:50;;;;;;;7.18;2.22;;;;;;;15.24;100.00;99423.09;5015170;28;20075;-71
2023/08/03 07:04:16;;;;;;;11.80;2.47;;;;;;;15.23;100.00;99421.47;5019587;28;20093;-71
2023/08/03 07:06:42;;;;;;;11.50;2.30;;;;;;;15.26;100.00;99432.50;5023529;28;20029;-72
2023/08/03 07:09:07;;;;;;;10.55;2.28;;;;;;;15.29;100.00;99429.34;5013602;28;20542;-72
2023/08/03 07:11:33;;;;;;;12.02;2.20;;;;;;;15.35;100.00;99435.66;5022153;28;20152;-71
2023/08/03 07:13:58;;;;;;;15.38;2.60;;;;;;;15.44;100.00;99434.22;5021011;28;20021;-71
2023/08/03 07:16:24;;;;;;;7.30;2.40;;;;;;;15.50;100.00;99433.28;5020047;28;20103;-71
2023/08/03 07:18:49;;;;;;;8.20;2.20;;;;;;;15.51;100.00;99467.00;5027495;28;20029;-71
2023/08/03 07:21:14;;;;;;;11.57;2.63;;;;;;;15.48;100.00;99446.88;5017849;28;20068;-71
2023/08/03 07:23:40;;;;;;;8.38;2.30;;;;;;;15.42;100.00;99453.19;5022099;28;20028;-71
2023/08/03 07:26:14;;;;;;;7.72;2.28;;;;;;;15.38;100.00;99477.97;5024384;28;20037;-72
2023/08/03 07:28:39;;;;;;;12.82;2.38;;;;;;;15.30;100.00;99492.50;5024594;28;20490;-72
2023/08/03 07:31:04;;;;;;;10.88;2.45;;;;;;;15.28;100.00;99469.72;5016144;28;20021;-71
2023/08/03 07:33:29;;;;;;;17.80;3.40;;;;;;;15.28;100.00;99473.19;5029061;28;20032;-71
2023/08/03 07:35:55;;;;;;;13.35;2.90;;;;;;;15.27;100.00;99470.75;5024589;28;20026;-71
2023/08/03 07:38:20;;;;;;;17.58;3.30;;;;;;;15.24;100.00;99471.22;5017256;28;20021;-71
2023/08/03 07:40:45;;;;;;;17.67;3.20;;;;;;;15.20;100.00;99473.56;5023074;28;20032;-71
2023/08/03 07:43:10;;;;;;;9.88;2.78;;;;;;;15.19;100.00;99486.13;5016895;28;20025;-72
2023/08/03 07:45:38;;;;;;;16.45;3.20;;;;;;;15.18;100.00;99487.16;5014871;28;20082;-71
2023/08/03 07:48:04;;;;;;;15.00;2.83;;;;;;;15.20;100.00;99484.25;5019231;28;20025;-71
2023/08/03 07:50:29;;;;;;;10.80;2.60;;;;;;;15.18;100.00;99492.53;5023503;28;20021;-71
2023/08/03 07:52:54;;;;;;;12.88;3.13;;;;;;;15.17;100.00;99514.16;5023818;28;20033;-71
2023/08/03 07:55:20;;;;;;;13.63;2.92;;;;;;;15.16;100.00;99499.97;5017062;28;20104;-71
2023/08/03 07:57:45;;;;;;;11.68;2.90;;;;;;;15.17;100.00;99527.53;5017935;28;20029;-71
2023/08/03 08:00:11;;;;;;;13.55;2.67;;;;;;;15.14;100.00;99514.63;5017745;28;20712;-71
2023/08/03 08:02:36;;;;;;;11.27;2.65;;;;;;;15.19;100.00;99514.72;5020375;28;20098;-71
2023/08/03 08:05:01;;;;;;;11.25;2.90;;;;;;;15.18;100.00;99532.63;5018435;28;20026;-71
2023/08/03 08:07:27;;;;;;;13.48;3.47;;;;;;;15.23;100.00;99523.09;5020356;28;20032;-71
2023/08/03 08:09:53;;;;;;;12.52;2.70;;;;;;;15.24;100.00;99540.78;5022658;28;20033;-71
2023/08/03 08:12:19;;;;;;;11.15;2.80;;;;;;;15.27;100.00;99545.66;5026744;28;20025;-71
2023/08/03 08:14:44;;;;;;;14.98;3.17;;;;;;;15.41;100.00;99539.84;5023223;28;20913;-71
2023/08/03 08:17:09;;;;;;;13.20;3.10;;;;;;;15.40;100.00;99551.59;5018879;28;20021;-73
2023/08/03 08:19:34;;;;;;;13.98;2.80;;;;;;;15.46;100.00;99550.66;5015845;28;20472;-73
2023/08/03 08:22:00;;;;;;;11.43;2.80;;;;;;;15.50;100.00;99564.38;5021395;28;20029;-73
2023/08/03 08:24:25;;;;;;;9.52;3.42;;;;;;;15.47;100.00;99578.22;5020091;28;20549;-73
2023/08/03 08:26:50;;;;;;;14.55;3.17;;;;;;;15.46;100.00;99571.25;5019796;28;20032;-73
2023/08/03 08:29:15;;;;;;;11.73;3.00;;;;;;;15.40;100.00;99578.34;5018780;28;20029;-73
2023/08/03 08:31:41;;;;;;;14.30;3.17;;;;;;;15.38;100.00;99580.44;5020388;28;20022;-73
2023/08/03 08:34:07;;;;;;;11.27;3.35;;;;;;;15.45;100.00;99570.44;5019578;28;20073;-73
2023/08/03 08:36:32;;;;;;;10.23;2.92;;;;;;;15.48;100.00;99587.88;5022432;28;20151;-73
2023/08/03 08:38:57;;;;;;;10.57;3.53;;;;;;;15.54;100.00;99588.81;5023533;28;20471;-72
2023/08/03 08:41:23;;;;;;;19.02;3.58;;;;;;;15.56;100.00;99600.91;5017467;28;20037;-73
2023/08/03 08:43:48;;;;;;;9.05;2.80;;;;;;;15.69;100.00;99626.66;5022860;28;20490;-71
2023/08/03 08:46:13;;;;;;;10.02;2.45;;;;;;;15.72;100.00;99612.81;5022236;28;20513;-73
2023/08/03 08:48:39;;;;;;;8.32;2.80;;;;;;;15.86;100.00;99624.06;5019751;28;20021;-73
2023/08/03 08:51:04;;;;;;;10.23;2.88;;;;;;;15.96;100.00;99610.91;5020167;28;20394;-73
2023/08/03 08:53:30;;;;;;;10.70;2.53;;;;;;;16.04;100.00;99621.25;5021924;28;20021;-73
2023/08/03 08:55:55;;;;;;;6.78;2.72;;;;;;;16.04;100.00;99626.63;5025693;28;20032;-73
2023/08/03 08:58:20;;;;;;;8.70;2.55;;;;;;;16.14;100.00;99640.19;5027147;28;20075;-73
2023/08/03 09:00:47;;;;;;;10.13;2.95;;;;;;;16.26;100.00;99653.59;5026158;28;20013;-73
2023/08/03 09:03:14;;;;;;;10.05;2.80;;;;;;;16.32;100.00;99650.78;5019586;28;20022;-73
2023/08/03 09:05:39;;;;;;;8.90;2.97;;;;;;;16.48;100.00;99649.22;5012863;28;20037;-73
2023/08/03 09:08:05;;;;;;;9.52;2.92;;;;;;;16.68;100.00;99655.00;5022758;28;20072;-73
2023/08/03 09:10:46;;;;;;;7.55;2.40;;;;;;;16.86;100.00;99670.09;5025943;28;20021;-73
2023/08/03 09:13:35;;;;;;;8.65;2.55;;;;;;;16.93;100.00;99667.25;5024518;28;20056;-73
2023/08/03 09:16:00;;;;;;;;;;;;;;;17.01;100.00;99674.91;5025932;28;20025;-73
2023/08/03 09:18:29;;;;;;;6.53;2.20;;;;;;;17.07;100.00;99679.31;5026534;28;19917;-73
2023/08/03 09:21:16;;;;;;;6.22;2.40;;;;;;;17.18;100.00;99688.34;5016947;28;20045;-73
2023/08/03 09:23:42;;;;;;;9.90;2.92;;;;;;;17.19;100.00;99701.53;5021184;28;20026;-73
2023/08/03 09:26:08;;;;;;;13.40;3.30;;;;;;;17.30;100.00;99705.19;5027566;28;20027;-73
2023/08/03 09:28:38;;;;;;;11.70;3.65;;;;;;;17.36;100.00;99706.91;5020648;28;20609;-73
2023/08/03 09:31:05;;;;;;;11.13;2.88;;;;;;;17.42;100.00;99713.19;5026649;28;20021;-72
2023/08/03 09:33:31;;;;;;;9.50;3.03;;;;;;;17.42;100.00;99719.38;5023373;28;20045;-73
2023/08/03 09:36:11;;;;;;;11.75;2.97;;;;;;;17.50;100.00;99736.94;5027979;28;20029;-73
2023/08/03 09:38:36;;;;;;;10.80;2.90;;;;;;;17.54;100.00;99741.56;5025054;28;20032;-72
2023/08/03 09:41:02;;;;;;;9.23;2.80;;;;;;;17.57;100.00;99733.03;5029652;28;20044;-72
2023/08/03 09:43:28;;;;;;;9.57;2.80;;;;;;;17.61;100.00;99739.53;5020747;28;20021;-73
2023/08/03 09:45:54;;;;;;;11.60;3.25;;;;;;;17.65;100.00;99737.19;5026542;28;20083;-72
2023/08/03 09:48:20;;;;;;;12.88;3.05;;;;;;;17.75;100.00;99744.63;5026462;28;20387;-72
2023/08/03 09:50:58;;;;;;;8.02;3.17;;;;;;;17.85;100.00;99750.97;5029337;28;20021;-73
2023/08/03 09:53:26;;;;;;;12.95;3.35;;;;;;;17.86;100.00;99752.59;5027308;28;20029;-72
2023/08/03 09:55:58;;;;;;;9.60;2.97;;;;;;;17.84;100.00;99764.63;5022337;28;20025;-73
2023/08/03 09:58:58;;;;;;;14.23;3.42;;;;;;;17.86;100.00;99766.03;5027543;28;20021;-73
2023/08/03 10:01:26;;;;;;;12.63;3.00;;;;;;;17.83;100.00;99779.13;5023689;28;20068;-72
2023/08/03 10:03:58;;;;;;;15.38;3.10;;;;;;;17.82;100.00;99790.94;5019123;28;20038;-73
2023/08/03 10:06:27;;;;;;;12.65;3.70;;;;;;;17.78;100.00;99795.16;5025840;28;20034;-72
2023/08/03 10:08:56;;;;;;;15.30;3.70;;;;;;;17.76;100.00;99798.09;5021966;28;20037;-72
2023/08/03 10:11:25;;;;;;;10.60;3.20;;;;;;;17.82;100.00;99797.13;5021643;28;20028;-72
2023/08/03 10:13:51;;;;;;;;;;;;;;;17.94;100.00;99802.44;5020860;28;20561;-72
2023/08/03 10:16:18;;;;;;;13.98;3.42;;;;;;;17.92;100.00;99799.97;5011671;28;19928;-72
2023/08/03 10:18:45;;;;;;;10.02;2.60;;;;;;;17.99;100.00;99810.56;5020061;28;20037;-72
2023/08/03 10:21:10;;;;;;;9.52;2.75;;;;;;;17.97;100.00;99807.31;5018184;28;20026;-72
2023/08/03 10:23:38;;;;;;;8.98;2.85;;;;;;;18.01;100.00;99802.25;5026577;28;20040;-72
2023/08/03 10:26:06;;;;;;;13.15;3.05;;;;;;;18.09;100.00;99801.84;5029730;28;20049;-72
2023/08/03 10:28:40;;;;;;;11.48;2.92;;;;;;;18.24;100.00;99812.84;5026521;28;20151;-72
2023/08/03 10:31:10;;;;;;;12.60;3.00;;;;;;;18.40;100.00;99825.44;5025904;28;20629;-72
2023/08/03 10:33:51;;;;;;;16.98;3.75;;;;;;;18.62;100.00;99814.75;5017779;28;20029;-72
2023/08/03 10:36:29;;;;;;;9.13;2.95;;;;;;;18.55;100.00;99819.47;5027312;28;20021;-72
2023/08/03 10:38:55;;;;;;;9.53;2.67;;;;;;;18.46;100.00;99820.94;5023272;28;20029;-71
2023/08/03 10:41:21;;;;;;;12.10;2.92;;;;;;;18.56;100.00;99829.16;5027948;28;20662;-72
2023/08/03 10:44:20;;;;;;;11.23;2.85;;;;;;;18.83;100.00;99832.78;5028233;28;20025;-72
2023/08/03 10:46:56;;;;;;;9.85;2.85;;;;;;;18.90;100.00;99831.78;5018000;28;20037;-72
2023/08/03 10:49:24;;;;;;;8.98;2.80;;;;;;;18.94;100.00;99827.53;5017257;28;20024;-72
2023/08/03 10:51:53;;;;;;;9.43;2.28;;;;;;;18.91;100.00;99847.69;5025454;28;20033;-72
2023/08/03 10:54:20;;;;;;;8.57;2.70;;;;;;;18.87;100.00;99847.38;5026705;28;20079;-73
2023/08/03 10:57:02;;;;;;;8.95;2.60;;;;;;;18.85;100.00;99840.63;5023856;28;20491;-72
2023/08/03 10:59:27;;;;;;;13.40;2.95;;;;;;;19.01;100.00;99876.59;5018056;28;20064;-72
2023/08/03 11:01:52;;;;;;;7.18;2.50;;;;;;;19.12;100.00;99851.47;5027377;28;20025;-72
2023/08/03 11:04:22;;;;;;;9.05;2.33;;;;;;;19.17;99.96;99867.66;5015491;28;20116;-72
2023/08/03 11:06:48;;;;;;;10.57;2.63;;;;;;;19.16;100.00;99869.53;5026285;28;20692;-72
2023/08/03 11:09:13;;;;;;;8.63;2.63;;;;;;;19.18;99.97;99877.38;5018715;28;20042;-72
2023/08/03 11:11:40;;;;;;;7.32;2.58;;;;;;;19.10;99.64;99883.19;5023581;28;20078;-72
2023/08/03 11:14:06;;;;;;;11.55;2.63;;;;;;;18.86;99.21;99899.56;5019016;28;20021;-72
2023/08/03 11:16:33;;;;;;;10.38;2.65;;;;;;;18.38;100.00;99912.75;5021832;28;20033;-73